createdAt,value
2023-04-18T00:01:42.136Z,102968.06
2023-04-18T00:04:09.024Z,102971.53
2023-04-18T00:06:38.876Z,102965.31
2023-04-18T00:09:05.529Z,102972.56
2023-04-18T00:11:32.172Z,102975.09
2023-04-18T00:13:59.401Z,102961.59
2023-04-18T00:16:27.276Z,102961.75
2023-04-18T00:18:54.274Z,102971.59
2023-04-18T00:21:22.644Z,102967.03
2023-04-18T00:23:49.262Z,102976.84
2023-04-18T00:26:15.958Z,102979.53
2023-04-18T00:28:42.520Z,102982.16
2023-04-18T00:31:09.126Z,102981.31
2023-04-18T00:33:35.786Z,102990.31
2023-04-18T00:36:02.361Z,102979.50
2023-04-18T00:38:28.939Z,102993.66
2023-04-18T00:40:55.559Z,102985.69
2023-04-18T00:43:25.246Z,102986.47
2023-04-18T00:45:52.315Z,102983.78
2023-04-18T00:48:18.906Z,102979.28
2023-04-18T00:50:45.591Z,102980.22
2023-04-18T00:53:12.183Z,102982.13
2023-04-18T00:55:39.035Z,102979.28
2023-04-18T00:58:06.269Z,102974.84
2023-04-18T01:00:32.893Z,102982.03
2023-04-18T01:02:59.838Z,102983.81
2023-04-18T01:05:26.954Z,102988.34
2023-04-18T01:07:58.727Z,102987.34
2023-04-18T01:10:25.517Z,102987.28
2023-04-18T01:13:09.819Z,102982.66
2023-04-18T01:15:37.045Z,102977.44
2023-04-18T01:18:03.851Z,102985.66
2023-04-18T01:20:31.285Z,102988.19
2023-04-18T01:22:58.630Z,102979.22
2023-04-18T01:25:25.349Z,102977.38
2023-04-18T01:27:54.126Z,102985.50
2023-04-18T01:30:20.729Z,102981.88
2023-04-18T01:32:47.324Z,102970.91
2023-04-18T01:35:13.945Z,102979.13
2023-04-18T01:37:40.489Z,102973.75
2023-04-18T01:40:07.741Z,102970.28
2023-04-18T01:42:34.334Z,102974.69
2023-04-18T01:45:00.951Z,102975.56
2023-04-18T01:47:27.569Z,102979.91
2023-04-18T01:49:54.249Z,102975.53
2023-04-18T01:52:20.898Z,102975.31
2023-04-18T01:54:47.481Z,102974.44
2023-04-18T01:57:14.042Z,102971.88
2023-04-18T01:59:40.662Z,102968.31
2023-04-18T02:02:08.000Z,102971.97
2023-04-18T02:04:34.634Z,102982.66
2023-04-18T02:07:01.209Z,102968.19
2023-04-18T02:09:27.799Z,102978.78
2023-04-18T02:11:56.345Z,102981.69
2023-04-18T02:14:22.904Z,102979.13
2023-04-18T02:16:49.556Z,102980.75
2023-04-18T02:19:16.155Z,102976.25
2023-04-18T02:21:44.476Z,102979.97
2023-04-18T02:24:11.150Z,102968.19
2023-04-18T02:26:37.782Z,102971.75
2023-04-18T02:29:04.346Z,102977.06
2023-04-18T02:31:32.162Z,102975.31
2023-04-18T02:33:58.735Z,102977.97
2023-04-18T02:36:27.265Z,102969.94
2023-04-18T02:38:54.741Z,102971.75
2023-04-18T02:41:21.303Z,102975.22
2023-04-18T02:43:47.904Z,102969.88
2023-04-18T02:46:14.510Z,102975.31
2023-04-18T02:48:41.140Z,102967.19
2023-04-18T02:51:08.572Z,102977.91
2023-04-18T02:53:35.460Z,102980.47
2023-04-18T02:56:02.291Z,102979.56
2023-04-18T02:58:29.406Z,102980.41
2023-04-18T03:00:57.999Z,102981.34
2023-04-18T03:03:24.665Z,102978.84
2023-04-18T03:05:51.320Z,102973.25
2023-04-18T03:08:17.874Z,102973.31
2023-04-18T03:10:44.415Z,102976.84
2023-04-18T03:13:10.946Z,102977.50
2023-04-18T03:15:37.627Z,102977.50
2023-04-18T03:18:05.121Z,102975.13
2023-04-18T03:20:31.704Z,102972.38
2023-04-18T03:22:58.242Z,102983.97
2023-04-18T03:25:24.843Z,102982.97
2023-04-18T03:27:51.529Z,102974.91
2023-04-18T03:30:18.158Z,102976.78
2023-04-18T03:32:46.612Z,102976.78
2023-04-18T03:35:13.241Z,102978.44
2023-04-18T03:37:40.021Z,102978.44
2023-04-18T03:40:07.079Z,102979.41
2023-04-18T03:42:33.628Z,102986.59
2023-04-18T03:45:00.189Z,102986.41
2023-04-18T03:47:26.753Z,102985.53
2023-04-18T03:49:54.403Z,102992.81
2023-04-18T03:52:21.075Z,102979.31
2023-04-18T03:54:47.616Z,102981.06
2023-04-18T03:57:14.245Z,102980.88
2023-04-18T03:59:41.418Z,102982.00
2023-04-18T04:02:08.098Z,102989.06
2023-04-18T04:04:34.826Z,102990.91
2023-04-18T04:07:01.628Z,102994.41
2023-04-18T04:09:28.191Z,102989.06
2023-04-18T04:11:54.745Z,102990.63
2023-04-18T04:14:22.725Z,103003.34
2023-04-18T04:16:49.351Z,103001.53
2023-04-18T04:19:15.990Z,103003.34
2023-04-18T04:21:42.537Z,103001.44
2023-04-18T04:24:09.485Z,103001.38
2023-04-18T04:26:36.167Z,103003.13
2023-04-18T04:29:03.642Z,103001.41
2023-04-18T04:31:30.219Z,103005.00
2023-04-18T04:33:56.836Z,103007.72
2023-04-18T04:36:24.759Z,103017.50
2023-04-18T04:38:52.311Z,103012.19
2023-04-18T04:41:18.905Z,103013.09
2023-04-18T04:43:46.647Z,103012.13
2023-04-18T04:46:14.832Z,103013.84
2023-04-18T04:48:42.276Z,103007.72
2023-04-18T04:51:08.884Z,103008.50
2023-04-18T04:53:35.564Z,103015.69
2023-04-18T04:56:02.145Z,103019.19
2023-04-18T04:58:29.042Z,103014.72
2023-04-18T05:00:55.859Z,103021.91
2023-04-18T05:03:22.619Z,103024.50
2023-04-18T05:05:49.370Z,103019.06
2023-04-18T05:08:15.988Z,103024.50
2023-04-18T05:10:43.315Z,103015.63
2023-04-18T05:13:10.006Z,103012.19
2023-04-18T05:15:36.611Z,103013.88
2023-04-18T05:18:03.412Z,103012.09
2023-04-18T05:20:30.005Z,103020.94
2023-04-18T05:22:56.658Z,103024.41
2023-04-18T05:25:23.277Z,103026.22
2023-04-18T05:27:50.638Z,103027.16
2023-04-18T05:30:17.579Z,103029.78
2023-04-18T05:32:44.336Z,103028.22
2023-04-18T05:35:10.910Z,103023.56
2023-04-18T05:37:37.499Z,103024.31
2023-04-18T05:40:05.435Z,103024.38
2023-04-18T05:42:32.043Z,103030.63
2023-04-18T05:44:58.626Z,103026.97
2023-04-18T05:47:28.355Z,103033.28
2023-04-18T05:49:55.442Z,103036.84
2023-04-18T05:52:22.100Z,103036.94
2023-04-18T05:54:48.661Z,103035.03
2023-04-18T05:57:15.235Z,103031.44
2023-04-18T05:59:41.813Z,103037.78
2023-04-18T06:02:13.314Z,103038.75
2023-04-18T06:04:42.097Z,103031.25
2023-04-18T06:07:09.314Z,103036.78
2023-04-18T06:09:36.059Z,103034.22
2023-04-18T06:12:02.622Z,103035.09
2023-04-18T06:14:29.342Z,103037.88
2023-04-18T06:16:55.903Z,103045.00
2023-04-18T06:19:22.456Z,103045.94
2023-04-18T06:21:49.453Z,103046.75
2023-04-18T06:24:16.323Z,103047.66
2023-04-18T06:26:43.210Z,103046.69
2023-04-18T06:29:09.784Z,103037.69
2023-04-18T06:31:36.405Z,103038.84
2023-04-18T06:34:03.426Z,103044.78
2023-04-18T06:36:30.046Z,103051.19
2023-04-18T06:38:56.654Z,103048.00
2023-04-18T06:41:23.257Z,103052.44
2023-04-18T06:44:02.774Z,103052.59
2023-04-18T06:46:30.677Z,103056.97
2023-04-18T06:48:57.343Z,103064.69
2023-04-18T06:51:23.935Z,103059.19
2023-04-18T06:53:52.873Z,103066.19
2023-04-18T06:56:22.742Z,103074.34
2023-04-18T06:58:49.840Z,103068.56
2023-04-18T07:01:16.511Z,103069.91
2023-04-18T07:03:43.362Z,103061.97
2023-04-18T07:06:10.960Z,103063.69
2023-04-18T07:08:38.022Z,103056.53
2023-04-18T07:11:05.845Z,103062.69
2023-04-18T07:13:32.386Z,103064.63
2023-04-18T07:15:59.013Z,103069.13
2023-04-18T07:18:34.716Z,103065.28
2023-04-18T07:21:03.679Z,103052.94
2023-04-18T07:23:30.270Z,103071.53
2023-04-18T07:25:58.635Z,103071.22
2023-04-18T07:28:25.257Z,103069.25
2023-04-18T07:30:51.873Z,103073.88
2023-04-18T07:33:18.418Z,103081.91
2023-04-18T07:35:46.656Z,103070.31
2023-04-18T07:38:13.242Z,103071.09
2023-04-18T07:40:39.838Z,103070.44
2023-04-18T07:43:06.414Z,103076.50
2023-04-18T07:45:35.727Z,103072.19
2023-04-18T07:48:02.565Z,103065.78
2023-04-18T07:50:29.236Z,103078.16
2023-04-18T07:52:55.831Z,103069.41
2023-04-18T07:55:22.441Z,103077.66
2023-04-18T07:57:50.467Z,103068.63
2023-04-18T08:00:18.260Z,103068.81
2023-04-18T08:02:45.264Z,103072.41
2023-04-18T08:05:12.201Z,103074.09
2023-04-18T08:07:38.841Z,103069.69
2023-04-18T08:10:05.879Z,103065.09
2023-04-18T08:12:32.496Z,103061.53
2023-04-18T08:14:59.135Z,103071.50
2023-04-18T08:17:25.749Z,103072.53
2023-04-18T08:19:52.322Z,103074.53
2023-04-18T08:22:18.886Z,103071.91
2023-04-18T08:24:57.473Z,103072.66
2023-04-18T08:27:31.465Z,103060.09
2023-04-18T08:29:58.289Z,103060.09
2023-04-18T08:32:24.952Z,103066.38
2023-04-18T08:34:51.597Z,103065.53
2023-04-18T08:37:18.278Z,103069.19
2023-04-18T08:39:45.101Z,103071.00
2023-04-18T08:42:16.009Z,103060.38
2023-04-18T08:44:43.169Z,103071.00
2023-04-18T08:47:11.053Z,103068.34
2023-04-18T08:49:38.194Z,103071.00
2023-04-18T08:52:11.215Z,103072.91
2023-04-18T08:54:38.734Z,103076.50
2023-04-18T08:57:12.567Z,103072.97
2023-04-18T08:59:40.073Z,103061.38
2023-04-18T09:02:08.931Z,103069.47
2023-04-18T09:04:39.628Z,103074.00
2023-04-18T09:07:10.815Z,103070.44
2023-04-18T09:09:46.384Z,103072.38
2023-04-18T09:12:15.445Z,103070.69
2023-04-18T09:14:45.973Z,103076.16
2023-04-18T09:17:21.878Z,103080.66
2023-04-18T09:19:49.065Z,103070.91
2023-04-18T09:22:17.016Z,103077.16
2023-04-18T09:24:53.267Z,103070.94
2023-04-18T09:27:22.905Z,103068.38
2023-04-18T09:29:56.513Z,103068.41
2023-04-18T09:32:27.118Z,103070.25
2023-04-18T09:34:58.310Z,103077.41
2023-04-18T09:37:26.035Z,103083.72
2023-04-18T09:39:52.856Z,103075.50
2023-04-18T09:42:19.851Z,103072.03
2023-04-18T09:45:01.274Z,103070.22
2023-04-18T09:47:28.475Z,103067.63
2023-04-18T09:49:55.624Z,103075.72
2023-04-18T09:52:25.447Z,103063.16
2023-04-18T09:54:58.352Z,103070.44
2023-04-18T09:57:27.606Z,103065.06
2023-04-18T10:00:00.141Z,103062.47
2023-04-18T10:02:29.163Z,103072.34
2023-04-18T10:04:57.362Z,103073.38
2023-04-18T10:07:24.713Z,103060.03
2023-04-18T10:09:51.517Z,103059.19
2023-04-18T10:12:18.764Z,103060.09
2023-04-18T10:14:50.197Z,103054.78
2023-04-18T10:17:20.697Z,103056.66
2023-04-18T10:20:04.022Z,103062.03
2023-04-18T10:22:30.838Z,103047.78
2023-04-18T10:24:57.553Z,103058.69
2023-04-18T10:27:49.002Z,103057.00
2023-04-18T10:30:18.855Z,103053.59
2023-04-18T10:32:48.272Z,103058.19
2023-04-18T10:35:17.499Z,103061.94
2023-04-18T10:37:51.512Z,103055.75
2023-04-18T10:40:32.473Z,103047.00
2023-04-18T10:43:02.198Z,103056.63
2023-04-18T10:45:38.239Z,103051.38
2023-04-18T10:48:26.007Z,103051.47
2023-04-18T10:51:14.499Z,103045.19
2023-04-18T10:53:48.335Z,103034.38
2023-04-18T10:56:17.950Z,103040.69
2023-04-18T10:58:51.520Z,103044.31
2023-04-18T11:01:31.716Z,103033.56
2023-04-18T11:03:59.713Z,103034.38
2023-04-18T11:06:30.338Z,103040.69
2023-04-18T11:09:11.741Z,103038.13
2023-04-18T11:11:38.368Z,103038.00
2023-04-18T11:14:05.185Z,103030.94
2023-04-18T11:16:33.596Z,103034.56
2023-04-18T11:19:01.674Z,103031.09
2023-04-18T11:21:30.623Z,103035.59
2023-04-18T11:24:01.873Z,103038.19
2023-04-18T11:26:29.093Z,103028.25
2023-04-18T11:28:58.708Z,103030.03
2023-04-18T11:31:25.564Z,103023.81
2023-04-18T11:33:56.525Z,103021.97
2023-04-18T11:36:26.509Z,103028.31
2023-04-18T11:38:53.066Z,103025.69
2023-04-18T11:41:19.617Z,103012.31
2023-04-18T11:43:52.042Z,103010.44
2023-04-18T11:46:18.701Z,103019.44
2023-04-18T11:48:45.602Z,103009.56
2023-04-18T11:51:34.081Z,103009.47
2023-04-18T11:54:00.787Z,103016.66
2023-04-18T11:56:27.372Z,103014.06
2023-04-18T11:58:53.996Z,103012.31
2023-04-18T12:01:22.630Z,103014.06
2023-04-18T12:06:50.738Z,103025.91
2023-04-18T12:09:17.973Z,103016.81
2023-04-18T12:11:44.710Z,103015.09
2023-04-18T12:14:21.662Z,103008.84
2023-04-18T12:16:52.922Z,103004.34
2023-04-18T12:19:20.861Z,103011.47
2023-04-18T12:22:00.741Z,103015.94
2023-04-18T12:24:29.947Z,103022.28
2023-04-18T12:26:58.022Z,103017.81
2023-04-18T12:29:30.028Z,103007.91
2023-04-18T12:32:02.065Z,103017.06
2023-04-18T12:34:28.677Z,103008.84
2023-04-18T12:36:55.323Z,103008.88
2023-04-18T12:39:21.952Z,103015.09
2023-04-18T12:41:49.786Z,103015.09
2023-04-18T12:44:24.640Z,103008.06
2023-04-18T12:46:57.934Z,103002.63
2023-04-18T12:49:27.653Z,103004.44
2023-04-18T12:51:58.282Z,103004.44
2023-04-18T12:54:27.438Z,102996.41
2023-04-18T12:56:54.003Z,102994.56
2023-04-18T12:59:20.588Z,103001.72
2023-04-18T13:01:47.246Z,103002.59
2023-04-18T13:04:14.108Z,102997.19
2023-04-18T13:07:04.002Z,103008.84
2023-04-18T13:09:33.626Z,102997.16
2023-04-18T13:12:00.216Z,102990.91
2023-04-18T13:14:26.754Z,102991.75
2023-04-18T13:16:56.319Z,102997.22
2023-04-18T13:19:26.206Z,103004.31
2023-04-18T13:21:56.166Z,103000.69
2023-04-18T13:24:22.723Z,102994.47
2023-04-18T13:26:49.291Z,102998.88
2023-04-18T13:29:16.156Z,102994.44
2023-04-18T13:31:45.561Z,102997.06
2023-04-18T13:34:12.134Z,102995.28
2023-04-18T13:36:38.731Z,102989.97
2023-04-18T13:39:05.881Z,102984.59
2023-04-18T13:41:33.363Z,102995.44
2023-04-18T13:44:00.002Z,102995.44
2023-04-18T13:46:27.609Z,102981.13
2023-04-18T13:48:54.279Z,102982.94
2023-04-18T13:51:35.095Z,102981.16
2023-04-18T13:54:01.922Z,102982.00
2023-04-18T13:56:28.554Z,102977.53
2023-04-18T13:59:01.000Z,102977.59
2023-04-18T14:01:29.238Z,102982.03
2023-04-18T14:03:56.105Z,102986.53
2023-04-18T14:06:22.920Z,102965.91
2023-04-18T14:08:51.132Z,102979.38
2023-04-18T14:11:17.753Z,102972.22
2023-04-18T14:13:44.378Z,102979.31
2023-04-18T14:16:11.059Z,102978.47
2023-04-18T14:18:38.563Z,102970.41
2023-04-18T14:21:05.230Z,102984.72
2023-04-18T14:23:31.891Z,102965.06
2023-04-18T14:25:58.470Z,102972.25
2023-04-18T14:28:26.395Z,102970.44
2023-04-18T14:30:55.384Z,102970.47
2023-04-18T14:33:21.985Z,102974.06
2023-04-18T14:35:48.522Z,102972.25
2023-04-18T14:38:15.549Z,102967.75
2023-04-18T14:40:42.103Z,102966.81
2023-04-18T14:43:08.663Z,102966.81
2023-04-18T14:45:35.283Z,102965.09
2023-04-18T14:48:02.009Z,102970.47
2023-04-18T14:50:28.651Z,102971.38
2023-04-18T14:52:55.268Z,102979.44
2023-04-18T14:55:21.830Z,102977.66
2023-04-18T14:57:48.364Z,102965.13
2023-04-18T15:00:15.417Z,102972.31
2023-04-18T15:02:42.194Z,102971.44
2023-04-18T15:05:10.116Z,102965.13
2023-04-18T15:07:37.922Z,102959.75
2023-04-18T15:10:05.400Z,102961.53
2023-04-18T15:12:32.576Z,102968.75
2023-04-18T15:15:02.067Z,102966.06
2023-04-18T15:17:29.086Z,102963.38
2023-04-18T15:19:55.720Z,102965.13
2023-04-18T15:22:22.857Z,102970.53
2023-04-18T15:24:49.518Z,102966.94
2023-04-18T15:27:16.168Z,102960.69
2023-04-18T15:29:42.953Z,102957.97
2023-04-18T15:32:10.191Z,102954.41
2023-04-18T15:34:36.772Z,102958.84
2023-04-18T15:37:03.377Z,102957.03
2023-04-18T15:39:29.920Z,102952.50
2023-04-18T15:41:56.970Z,102956.09
2023-04-18T15:44:23.664Z,102950.69
2023-04-18T15:46:50.821Z,102954.28
2023-04-18T15:49:17.464Z,102960.56
2023-04-18T15:51:44.186Z,102961.44
2023-04-18T15:54:11.032Z,102963.25
2023-04-18T15:56:37.693Z,102956.06
2023-04-18T15:59:05.228Z,102959.63
2023-04-18T16:01:33.094Z,102955.13
2023-04-18T16:03:59.884Z,102961.41
2023-04-18T16:06:26.634Z,102963.22
2023-04-18T16:08:53.225Z,102952.44
2023-04-18T16:11:20.550Z,102960.47
2023-04-18T16:13:47.132Z,102958.66
2023-04-18T16:16:13.742Z,102961.34
2023-04-18T16:18:40.476Z,102958.66
2023-04-18T16:21:07.049Z,102960.47
2023-04-18T16:23:33.667Z,102961.34
2023-04-18T16:26:00.332Z,102962.25
2023-04-18T16:28:26.895Z,102969.38
2023-04-18T16:30:55.530Z,102966.75
2023-04-18T16:33:25.853Z,102966.75
2023-04-18T16:35:53.075Z,102967.63
2023-04-18T16:38:23.358Z,102967.63
2023-04-18T16:40:49.968Z,102964.03
2023-04-18T16:43:16.557Z,102972.13
2023-04-18T16:45:43.137Z,102975.69
2023-04-18T16:48:10.134Z,102972.97
2023-04-18T16:50:36.765Z,102974.81
2023-04-18T16:53:03.375Z,102976.63
2023-04-18T16:55:29.933Z,102975.69
2023-04-18T16:57:56.484Z,102979.31
2023-04-18T17:00:23.034Z,102979.31
2023-04-18T17:02:49.890Z,102982.88
2023-04-18T17:05:16.857Z,102973.91
2023-04-18T17:07:45.442Z,102985.56
2023-04-18T17:10:12.039Z,102977.50
2023-04-18T17:12:38.596Z,102972.13
2023-04-18T17:15:05.729Z,102970.31
2023-04-18T17:17:32.366Z,102976.56
2023-04-18T17:19:58.968Z,102980.19
2023-04-18T17:22:25.701Z,102977.50
2023-04-18T17:24:52.303Z,102975.69
2023-04-18T17:27:18.892Z,102977.50
2023-04-18T17:29:45.643Z,102981.03
2023-04-18T17:32:12.286Z,102972.94
2023-04-18T17:34:38.905Z,102975.63
2023-04-18T17:37:06.205Z,102975.63
2023-04-18T17:42:00.261Z,102978.34
2023-04-18T17:44:26.897Z,102974.75
2023-04-18T17:46:54.668Z,102973.78
2023-04-18T17:49:21.530Z,102973.78
2023-04-18T17:51:54.802Z,102967.53
2023-04-18T17:54:26.166Z,102989.03
2023-04-18T17:56:52.730Z,102984.53
2023-04-18T17:59:19.295Z,102987.22
2023-04-18T18:01:46.237Z,102984.50
2023-04-18T18:04:13.459Z,102988.06
2023-04-18T18:06:43.658Z,102987.19
2023-04-18T18:09:13.286Z,102998.81
2023-04-18T18:11:40.098Z,102992.59
2023-04-18T18:14:06.795Z,102988.06
2023-04-18T18:16:33.444Z,102995.25
2023-04-18T18:19:00.006Z,102992.56
2023-04-18T18:21:27.170Z,103006.88
2023-04-18T18:23:53.997Z,103000.63
2023-04-18T18:26:20.674Z,103006.88
2023-04-18T18:28:47.277Z,103005.97
2023-04-18T18:31:13.901Z,103002.38
2023-04-18T18:33:40.545Z,103002.38
2023-04-18T18:36:07.280Z,103006.88
2023-04-18T18:38:33.905Z,103006.00
2023-04-18T18:41:03.049Z,103008.59
2023-04-18T18:43:30.979Z,103010.44
2023-04-18T18:45:57.618Z,103006.84
2023-04-18T18:48:24.598Z,103009.53
2023-04-18T18:50:53.984Z,103018.44
2023-04-18T18:53:20.551Z,103015.75
2023-04-18T18:55:47.270Z,103013.13
2023-04-18T18:58:13.929Z,103023.81
2023-04-18T19:00:40.514Z,103022.03
2023-04-18T19:03:08.301Z,103022.88
2023-04-18T19:05:35.214Z,103020.22
2023-04-18T19:08:04.337Z,103026.50
2023-04-18T19:10:30.956Z,103027.34
2023-04-18T19:12:57.784Z,103027.34
2023-04-18T19:15:24.453Z,103025.63
2023-04-18T19:17:51.308Z,103027.38
2023-04-18T19:20:18.156Z,103032.75
2023-04-18T19:22:44.704Z,103030.94
2023-04-18T19:25:11.245Z,103026.50
2023-04-18T19:27:38.029Z,103025.59
2023-04-18T19:30:04.960Z,103030.00
2023-04-18T19:32:32.635Z,103033.56
2023-04-18T19:34:59.715Z,103034.50
2023-04-18T19:37:26.263Z,103041.63
2023-04-18T19:39:52.831Z,103039.81
2023-04-18T19:42:19.436Z,103042.50
2023-04-18T19:44:46.085Z,103032.69
2023-04-18T19:47:12.703Z,103035.38
2023-04-18T19:49:39.380Z,103035.31
2023-04-18T19:52:06.428Z,103044.25
2023-04-18T19:54:36.248Z,103046.00
2023-04-18T19:57:04.601Z,103048.75
2023-04-18T19:59:31.174Z,103048.69
2023-04-18T20:02:00.539Z,103043.38
2023-04-18T20:04:28.995Z,103048.69
2023-04-18T20:06:56.197Z,103047.84
2023-04-18T20:09:22.780Z,103052.25
2023-04-18T20:11:49.370Z,103047.78
2023-04-18T20:14:15.957Z,103054.94
2023-04-18T20:16:46.630Z,103053.06
2023-04-18T20:19:13.772Z,103050.44
2023-04-18T20:21:41.207Z,103057.56
2023-04-18T20:24:09.682Z,103053.94
2023-04-18T20:26:36.277Z,103052.22
2023-04-18T20:29:03.901Z,103057.50
2023-04-18T20:31:30.483Z,103045.88
2023-04-18T20:33:57.036Z,103053.06
2023-04-18T20:36:24.407Z,103046.69
2023-04-18T20:38:50.967Z,103053.06
2023-04-18T20:41:24.041Z,103053.84
2023-04-18T20:43:53.687Z,103055.63
2023-04-18T20:46:20.283Z,103058.31
2023-04-18T20:48:46.928Z,103059.22
2023-04-18T20:51:13.532Z,103054.75
2023-04-18T20:53:40.267Z,103053.84
2023-04-18T20:56:06.857Z,103062.75
2023-04-18T20:58:33.443Z,103055.69
2023-04-18T21:01:00.041Z,103059.22
2023-04-18T21:03:26.831Z,103048.38
2023-04-18T21:05:53.520Z,103062.66
2023-04-18T21:08:20.197Z,103057.28
2023-04-18T21:10:46.783Z,103061.00
2023-04-18T21:13:13.358Z,103059.13
2023-04-18T21:15:41.913Z,103062.59
2023-04-18T21:18:08.553Z,103067.16
2023-04-18T21:20:36.496Z,103065.38
2023-04-18T21:23:03.360Z,103076.03
2023-04-18T21:25:29.903Z,103072.53
2023-04-18T21:27:56.453Z,103076.97
2023-04-18T21:30:23.055Z,103078.78
2023-04-18T21:32:51.501Z,103076.91
2023-04-18T21:35:19.835Z,103071.59
2023-04-18T21:37:48.121Z,103073.25
2023-04-18T21:40:14.845Z,103077.75
2023-04-18T21:42:41.456Z,103072.31
2023-04-18T21:45:09.502Z,103070.59
2023-04-18T21:47:36.142Z,103073.34
2023-04-18T21:50:03.956Z,103071.44
2023-04-18T21:52:30.510Z,103071.41
2023-04-18T21:54:57.164Z,103075.00
2023-04-18T21:57:23.727Z,103070.53
2023-04-18T21:59:50.348Z,103078.50
2023-04-18T22:02:17.003Z,103082.97
2023-04-18T22:04:44.232Z,103073.19
2023-04-18T22:07:12.323Z,103068.63
2023-04-18T22:09:38.946Z,103073.03
2023-04-18T22:12:05.633Z,103069.50
2023-04-18T22:14:32.324Z,103067.66
2023-04-18T22:16:59.736Z,103074.78
2023-04-18T22:19:29.350Z,103068.53
2023-04-18T22:21:56.198Z,103071.97
2023-04-18T22:24:26.040Z,103074.59
2023-04-18T22:26:53.173Z,103065.72
2023-04-18T22:29:19.739Z,103063.94
2023-04-18T22:31:46.285Z,103069.34
2023-04-18T22:34:13.045Z,103079.13
2023-04-18T22:36:39.882Z,103071.03
2023-04-18T22:39:09.653Z,103076.41
2023-04-18T22:41:45.446Z,103069.31
2023-04-18T22:44:12.046Z,103075.53
2023-04-18T22:46:38.904Z,103074.66
2023-04-18T22:49:07.462Z,103075.53
2023-04-18T22:52:04.431Z,103075.53
2023-04-18T22:54:21.526Z,103072.78
2023-04-18T22:56:50.991Z,103072.78
2023-04-18T22:59:17.796Z,103077.03
2023-04-18T23:01:44.372Z,103075.34
2023-04-18T23:04:11.250Z,103087.84
2023-04-18T23:06:44.310Z,103091.41
2023-04-18T23:09:10.927Z,103085.22
2023-04-18T23:11:40.690Z,103092.34
2023-04-18T23:14:08.592Z,103094.06
2023-04-18T23:16:35.161Z,103084.28
2023-04-18T23:19:01.722Z,103094.91
2023-04-18T23:21:28.875Z,103086.91
2023-04-18T23:23:58.542Z,103090.34
2023-04-18T23:26:25.478Z,103091.38
2023-04-18T23:28:58.706Z,103091.38
2023-04-18T23:31:28.146Z,103086.78
2023-04-18T23:33:58.340Z,103089.56
2023-04-18T23:36:25.856Z,103086.84
2023-04-18T23:38:52.513Z,103086.84
2023-04-18T23:41:19.055Z,103088.53
2023-04-18T23:43:45.661Z,103099.16
2023-04-18T23:46:13.113Z,103095.63
2023-04-18T23:48:39.844Z,103090.22
2023-04-18T23:51:06.397Z,103088.50
2023-04-18T23:53:33.002Z,103086.63
2023-04-18T23:55:59.554Z,103088.50
2023-04-18T23:58:26.605Z,103080.44
